Time;durP1;ratioP1;P1;durP2;ratioP2;P2;SDS_P1;SDS_P2;PMS_P1;PMS_P2;Temp;Humidity;BMP_temperature;BMP_pressure;BME280_temperature;BME280_humidity;BME280_pressure;Samples;Min_cycle;Max_cycle;Signal;HPM_P1;HPM_P2
2021/10/07 18:20:57;;;;;;;4.62;2.27;;;;;;;9.18;43.43;102155.95;1736779;81;21027;-75
2021/10/07 18:23:26;;;;;;;5.40;2.55;;;;;;;9.17;43.35;102153.39;1763134;81;21015;-73
2021/10/07 18:25:51;;;;;;;6.40;2.67;;;;;;;9.17;43.31;102156.03;1805949;78;21414;-75
2021/10/07 18:28:28;;;;;;;5.62;2.60;;;;;;;9.16;43.71;102155.14;1805106;78;21477;-77
2021/10/07 18:30:49;;;;;;;6.22;2.67;;;;;;;9.15;43.62;102153.43;1794996;78;22470;-77
2021/10/07 18:33:16;;;;;;;12.80;2.80;;;;;;;9.14;43.66;102153.04;1794351;80;21160;-76
2021/10/07 18:35:42;;;;;;;6.30;2.70;;;;;;;9.12;43.57;102154.05;1801697;77;20995;-75
2021/10/07 18:38:09;;;;;;;5.25;2.55;;;;;;;9.10;43.79;102156.75;1819385;78;20947;-76
2021/10/07 18:40:36;;;;;;;5.62;2.62;;;;;;;9.08;43.11;102155.13;1794220;80;20983;-73
2021/10/07 18:43:03;;;;;;;4.12;2.17;;;;;;;9.08;43.19;102155.13;1802635;78;22191;-74
2021/10/07 18:45:31;;;;;;;8.60;2.52;;;;;;;9.08;43.26;102161.70;1808565;77;20951;-75
2021/10/07 18:47:57;;;;;;;4.42;2.20;;;;;;;9.05;43.23;102164.45;1812183;78;21128;-74
2021/10/07 18:50:24;;;;;;;8.85;2.40;;;;;;;9.00;43.05;102162.50;1794168;78;21086;-75
2021/10/07 18:52:50;;;;;;;5.70;1.90;;;;;;;8.97;43.04;102160.84;1794137;80;21003;-74
2021/10/07 18:55:17;;;;;;;6.53;2.50;;;;;;;8.96;43.41;102160.91;1813650;78;22230;-74
2021/10/07 18:57:43;;;;;;;5.53;2.30;;;;;;;8.93;43.54;102161.05;1806852;78;20999;-75
2021/10/07 19:00:11;;;;;;;5.17;2.02;;;;;;;8.92;43.81;102160.67;1826499;78;20939;-72
2021/10/07 19:02:39;;;;;;;7.30;3.92;;;;;;;8.86;44.43;102169.69;1810042;78;21533;-73
2021/10/07 19:05:07;;;;;;;10.60;2.98;;;;;;;8.78;44.46;102166.52;1796636;78;21031;-73
2021/10/07 19:07:35;;;;;;;10.35;2.72;;;;;;;8.71;44.68;102163.78;1794465;80;22179;-73
2021/10/07 19:10:06;;;;;;;8.78;2.80;;;;;;;8.65;44.62;102158.77;1803927;78;21600;-73
2021/10/07 19:12:32;;;;;;;4.37;2.40;;;;;;;8.60;44.80;102161.61;1815735;78;20967;-74
2021/10/07 19:15:00;;;;;;;5.83;2.50;;;;;;;8.56;44.76;102162.64;1794174;80;21035;-73
2021/10/07 19:17:27;;;;;;;6.83;3.08;;;;;;;8.47;45.08;102166.52;1816616;78;21027;-71
2021/10/07 19:19:53;;;;;;;4.78;2.75;;;;;;;8.46;45.15;102166.13;1822458;78;22569;-71
2021/10/07 19:22:20;;;;;;;8.38;2.95;;;;;;;8.46;45.12;102163.48;1806119;78;20928;-70
2021/10/07 19:24:46;;;;;;;5.30;2.50;;;;;;;8.45;45.26;102165.73;1722718;81;21067;-69
2021/10/07 19:27:15;;;;;;;8.65;3.00;;;;;;;8.42;45.48;102161.06;1762171;81;21059;-72
2021/10/07 19:29:42;;;;;;;6.60;2.55;;;;;;;8.37;45.89;102165.19;1738377;81;21034;-72
2021/10/07 19:32:11;;;;;;;11.18;2.50;;;;;;;8.31;46.04;102157.53;1740884;81;20920;-73
2021/10/07 19:34:38;;;;;;;6.30;2.42;;;;;;;8.29;46.30;102164.61;1741585;81;20983;-73
2021/10/07 19:37:14;;;;;;;6.78;2.72;;;;;;;8.26;46.74;102167.38;1744931;81;21035;-77
2021/10/07 19:39:37;;;;;;;5.22;2.20;;;;;;;8.22;46.97;102167.12;1744216;81;20983;-73
2021/10/07 19:42:05;;;;;;;5.03;2.20;;;;;;;8.19;47.16;102169.39;1778118;80;21075;-74
2021/10/07 19:44:33;;;;;;;5.72;2.22;;;;;;;8.18;47.30;102169.47;1735069;81;21886;-72
2021/10/07 19:47:00;;;;;;;5.58;2.50;;;;;;;8.15;47.54;102177.03;1733490;81;21091;-73
2021/10/07 19:49:27;;;;;;;6.30;2.80;;;;;;;8.13;47.78;102179.34;1733267;81;21063;-74
2021/10/07 19:51:55;;;;;;;5.78;2.58;;;;;;;8.08;47.70;102173.39;1747836;81;21523;-74
2021/10/07 19:54:22;;;;;;;8.98;2.65;;;;;;;8.07;47.68;102169.91;1756939;81;20964;-73
2021/10/07 19:56:48;;;;;;;9.55;2.80;;;;;;;8.06;47.72;102173.45;1744446;81;22174;-72
2021/10/07 19:59:14;;;;;;;4.80;2.60;;;;;;;8.05;47.96;102175.69;1748864;81;21537;-72
2021/10/07 20:01:42;;;;;;;4.92;2.58;;;;;;;8.03;48.27;102172.27;1763146;81;20956;-72
2021/10/07 20:04:08;;;;;;;7.50;2.75;;;;;;;8.02;48.23;102171.42;1763308;81;20979;-74
2021/10/07 20:06:35;;;;;;;10.30;2.90;;;;;;;8.01;48.63;102168.86;1753897;80;21562;-72
2021/10/07 20:09:03;;;;;;;4.03;2.50;;;;;;;7.97;48.67;102173.36;1748586;81;20968;-72
2021/10/07 20:11:32;;;;;;;5.33;2.60;;;;;;;7.94;48.78;102166.92;1749311;81;21077;-72
2021/10/07 20:13:58;;;;;;;5.47;2.60;;;;;;;7.90;48.77;102169.25;1739901;81;21463;-72
2021/10/07 20:16:25;;;;;;;9.40;3.55;;;;;;;7.89;48.75;102166.23;1765966;80;21029;-72
2021/10/07 20:18:51;;;;;;;5.65;2.70;;;;;;;7.87;48.94;102176.42;1784543;80;20992;-70
2021/10/07 20:21:18;;;;;;;6.55;2.30;;;;;;;7.83;49.16;102173.06;1756783;81;21835;-70
2021/10/07 20:23:45;;;;;;;7.60;2.83;;;;;;;7.79;49.09;102174.09;1758999;81;21588;-76
2021/10/07 20:26:11;;;;;;;6.03;2.50;;;;;;;7.78;49.19;102179.41;1765411;79;21374;-70
2021/10/07 20:28:38;;;;;;;3.47;2.12;;;;;;;7.75;49.10;102177.77;1747993;80;21057;-72
2021/10/07 20:31:04;;;;;;;7.20;2.35;;;;;;;7.73;49.04;102176.97;1826812;78;21034;-72
2021/10/07 20:39:06;;;;;;;3.87;2.22;;;;;;;7.68;49.41;102173.19;1794365;80;20951;-71
2021/10/07 20:41:33;;;;;;;4.25;2.20;;;;;;;7.66;49.48;102178.12;1769351;80;21457;-71
2021/10/07 20:44:01;;;;;;;3.98;2.45;;;;;;;7.64;49.73;102172.06;1798019;78;20963;-71
2021/10/07 20:46:27;;;;;;;3.40;2.00;;;;;;;7.60;49.75;102164.73;1814204;78;22145;-72
2021/10/07 20:48:54;;;;;;;5.37;2.27;;;;;;;7.56;50.05;102165.78;1824713;78;21022;-71
2021/10/07 20:51:20;;;;;;;4.12;1.98;;;;;;;7.53;50.16;102167.64;1798309;78;20964;-71
2021/10/07 20:53:46;;;;;;;3.98;2.30;;;;;;;7.50;50.33;102171.72;1794432;79;21485;-72
2021/10/07 20:56:13;;;;;;;3.15;1.70;;;;;;;7.41;50.65;102167.66;1798266;78;21381;-74
2021/10/07 20:58:39;;;;;;;7.22;2.20;;;;;;;7.34;50.84;102159.63;1801659;78;22166;-73
2021/10/07 21:01:06;;;;;;;3.47;2.45;;;;;;;7.29;50.91;102167.67;1794627;78;21046;-73
2021/10/07 21:03:32;;;;;;;6.42;2.80;;;;;;;7.26;50.84;102163.84;1817446;78;20958;-71
2021/10/07 21:05:58;;;;;;;7.35;2.52;;;;;;;7.25;51.02;102165.23;1811117;78;21002;-71
2021/10/07 21:08:26;;;;;;;8.28;2.52;;;;;;;7.19;51.15;102159.72;1795228;78;20949;-72
2021/10/07 21:10:53;;;;;;;4.78;2.50;;;;;;;7.13;51.39;102165.19;1794224;80;21448;-71
2021/10/07 21:13:21;;;;;;;5.60;3.12;;;;;;;7.06;51.88;102161.09;1800144;78;20978;-74
2021/10/07 21:15:47;;;;;;;6.62;4.20;;;;;;;6.95;52.27;102157.97;1803185;78;21062;-72
2021/10/07 21:18:14;;;;;;;6.33;3.50;;;;;;;6.83;52.53;102161.44;1826418;78;21899;-72
2021/10/07 21:20:41;;;;;;;4.78;3.22;;;;;;;6.77;52.64;102158.20;1807634;78;20979;-72
2021/10/07 21:23:07;;;;;;;3.83;2.47;;;;;;;6.72;52.79;102164.91;1794138;79;22165;-72
2021/10/07 21:25:34;;;;;;;8.33;2.70;;;;;;;6.67;53.01;102155.03;1806638;78;21621;-71
2021/10/07 21:28:00;;;;;;;11.70;2.90;;;;;;;6.58;53.20;102156.66;1822131;78;21379;-74
2021/10/07 21:30:28;;;;;;;5.80;2.45;;;;;;;6.49;53.47;102150.41;1826653;78;21010;-72
2021/10/07 21:32:54;;;;;;;4.62;2.60;;;;;;;6.42;53.64;102144.50;1826898;78;21086;-72
2021/10/07 21:35:23;;;;;;;7.12;2.42;;;;;;;6.34;53.64;102151.77;1820598;78;22625;-72
2021/10/07 21:37:50;;;;;;;5.45;2.40;;;;;;;6.31;53.79;102146.63;1810134;78;21003;-72
2021/10/07 21:40:17;;;;;;;4.05;2.40;;;;;;;6.26;53.92;102152.02;1794469;80;20996;-72
2021/10/07 21:42:45;;;;;;;8.48;2.87;;;;;;;6.22;53.99;102147.79;1759246;81;21012;-72
2021/10/07 21:45:12;;;;;;;5.25;2.50;;;;;;;6.19;53.95;102146.59;1757215;81;21034;-72
2021/10/07 21:47:39;;;;;;;8.93;2.72;;;;;;;6.17;53.99;102140.52;1733359;81;22676;-73
2021/10/07 21:50:07;;;;;;;7.42;2.52;;;;;;;6.15;54.01;102146.27;1774454;80;21051;-72
2021/10/07 21:52:36;;;;;;;7.30;2.55;;;;;;;6.13;54.21;102148.09;1826624;78;21003;-72
2021/10/07 21:55:03;;;;;;;6.67;2.80;;;;;;;6.09;54.35;102149.56;1805830;78;20971;-73
2021/10/07 21:57:29;;;;;;;4.50;2.60;;;;;;;6.06;54.41;102148.33;1808536;78;21011;-71
2021/10/07 21:59:56;;;;;;;7.40;2.83;;;;;;;6.03;54.63;102142.73;1826853;78;22140;-72
2021/10/07 22:02:22;;;;;;;4.37;2.65;;;;;;;5.98;54.75;102145.95;1826910;78;20948;-72
2021/10/07 22:04:48;;;;;;;5.10;2.55;;;;;;;5.94;54.92;102149.13;1826664;77;20983;-72
2021/10/07 22:07:15;;;;;;;5.22;2.65;;;;;;;5.90;55.08;102151.89;1805213;78;21067;-72
2021/10/07 22:09:41;;;;;;;4.03;2.70;;;;;;;5.86;55.14;102144.55;1819238;78;20952;-71
2021/10/07 22:12:08;;;;;;;5.60;3.00;;;;;;;5.81;55.51;102141.69;1802257;78;22133;-71
2021/10/07 22:14:34;;;;;;;7.03;3.05;;;;;;;5.76;55.53;102136.56;1794232;80;21050;-71
2021/10/07 22:17:01;;;;;;;4.90;2.80;;;;;;;5.78;55.49;102136.52;1817339;78;20947;-72
2021/10/07 22:19:27;;;;;;;5.62;2.83;;;;;;;5.80;55.58;102132.95;1826643;78;21003;-71
2021/10/07 22:21:55;;;;;;;7.35;2.87;;;;;;;5.82;55.64;102139.01;1826785;78;21493;-72
2021/10/07 22:24:22;;;;;;;7.10;2.58;;;;;;;5.80;55.70;102141.28;1826556;78;22190;-72
2021/10/07 22:26:48;;;;;;;6.83;2.67;;;;;;;5.80;55.78;102132.95;1811357;78;20944;-71
2021/10/07 22:29:15;;;;;;;5.42;2.90;;;;;;;5.81;55.64;102134.67;1820110;78;21006;-73
2021/10/07 22:31:41;;;;;;;6.22;2.77;;;;;;;5.85;55.51;102128.87;1794809;78;20967;-71
2021/10/07 22:34:08;;;;;;;7.20;3.12;;;;;;;5.87;55.47;102133.60;1794210;80;21010;-72
2021/10/07 22:36:35;;;;;;;8.58;3.33;;;;;;;5.89;55.37;102133.12;1808947;78;21822;-71
2021/10/07 22:39:02;;;;;;;5.30;3.00;;;;;;;5.90;55.39;102130.91;1825155;78;20983;-72
2021/10/07 22:41:29;;;;;;;6.90;3.50;;;;;;;5.90;55.33;102132.22;1826762;78;21492;-72
2021/10/07 22:43:55;;;;;;;5.35;2.92;;;;;;;5.91;55.34;102141.38;1826728;78;20979;-72
2021/10/07 22:46:22;;;;;;;9.68;3.60;;;;;;;5.92;55.30;102134.36;1802390;78;20986;-72
2021/10/07 22:48:48;;;;;;;6.92;3.35;;;;;;;5.89;55.48;102135.75;1794891;78;22157;-72
2021/10/07 22:51:15;;;;;;;7.05;3.52;;;;;;;5.85;55.61;102136.73;1794126;80;21520;-73
2021/10/07 22:53:42;;;;;;;4.97;3.40;;;;;;;5.83;55.58;102138.55;1794345;80;21026;-71
2021/10/07 22:56:08;;;;;;;6.00;3.40;;;;;;;5.80;55.83;102134.27;1814129;77;21375;-72
2021/10/07 22:58:35;;;;;;;8.00;3.10;;;;;;;5.75;55.97;102138.33;1808785;78;21078;-71
2021/10/07 23:01:01;;;;;;;4.72;3.25;;;;;;;5.67;56.09;102140.78;1824289;78;22187;-72
2021/10/07 23:03:28;;;;;;;5.65;3.62;;;;;;;5.62;56.21;102142.70;1813298;78;20999;-71
2021/10/07 23:05:55;;;;;;;7.78;3.45;;;;;;;5.57;56.30;102149.38;1794108;80;21492;-71
2021/10/07 23:08:22;;;;;;;6.50;3.85;;;;;;;5.56;56.44;102145.50;1804653;78;20985;-71
2021/10/07 23:10:50;;;;;;;6.70;3.77;;;;;;;5.57;56.40;102141.52;1826978;78;20935;-71
2021/10/07 23:13:17;;;;;;;7.70;3.87;;;;;;;5.59;56.54;102138.84;1816200;78;21813;-70
2021/10/07 23:15:43;;;;;;;6.20;3.87;;;;;;;5.56;56.64;102140.26;1769892;80;20939;-71
2021/10/07 23:18:09;;;;;;;7.05;3.50;;;;;;;5.54;56.65;102136.38;1758897;80;21031;-71
2021/10/07 23:20:37;;;;;;;6.58;3.80;;;;;;;5.55;56.80;102142.02;1739358;81;21014;-71
2021/10/07 23:23:04;;;;;;;6.53;3.85;;;;;;;5.53;57.05;102135.97;1793762;79;21007;-72
2021/10/07 23:25:31;;;;;;;8.60;3.77;;;;;;;5.53;56.95;102134.66;1753230;81;22295;-71
2021/10/07 23:27:57;;;;;;;7.95;3.47;;;;;;;5.57;56.99;102131.48;1745455;81;20981;-71
2021/10/07 23:30:24;;;;;;;7.10;3.67;;;;;;;5.54;56.96;102136.38;1756854;81;21016;-71
2021/10/07 23:32:50;;;;;;;4.50;3.25;;;;;;;5.54;56.96;102134.20;1756091;81;20953;-70
2021/10/07 23:35:17;;;;;;;5.30;3.58;;;;;;;5.52;57.01;102133.41;1756138;81;20980;-72
2021/10/07 23:37:43;;;;;;;6.10;3.50;;;;;;;5.48;57.03;102126.52;1753502;80;21835;-71
2021/10/07 23:40:11;;;;;;;6.70;3.22;;;;;;;5.44;57.13;102125.77;1749714;81;20963;-70
2021/10/07 23:42:38;;;;;;;6.28;3.50;;;;;;;5.40;57.28;102137.22;1727281;81;21019;-70
2021/10/07 23:45:06;;;;;;;6.00;3.37;;;;;;;5.37;57.35;102130.77;1726918;83;21083;-70
2021/10/07 23:47:32;;;;;;;7.00;4.05;;;;;;;5.33;57.67;102130.02;1726774;83;20955;-72
2021/10/07 23:49:59;;;;;;;12.78;4.37;;;;;;;5.30;57.66;102127.47;1749502;81;22775;-72
2021/10/07 23:52:25;;;;;;;6.35;4.47;;;;;;;5.28;57.83;102129.28;1756116;81;20969;-71
2021/10/07 23:54:52;;;;;;;7.05;4.17;;;;;;;5.22;57.94;102133.86;1784621;80;20949;-71
2021/10/07 23:57:18;;;;;;;7.35;4.28;;;;;;;5.17;58.06;102123.50;1784268;80;20969;-72
2021/10/07 23:59:44;;;;;;;8.10;3.60;;;;;;;5.14;58.13;102127.08;1753696;81;21530;-72
